This is the latest recevied weather packets stored in our database for station/object W7TTE. If no packets are shown the sender has not sent any weather packets the latest 10 day(s).
| Time | Temp. | Humidity | Pressure | Rain* | Wind** | Luminosity | Snow |
|---|---|---|---|---|---|---|---|
| 1777346339 | 22.22° C | 26% | 1014.5 hPa | 0 mm | - | 0 W/m² | - |
| 1777346036 | 22.22° C | 26% | 1014.5 hPa | 0 mm | - | 0 W/m² | - |
| 1777345733 | 22.22° C | 25% | 1014.4 hPa | 0 mm | - | 0 W/m² | - |
| 1777345127 | 22.78° C | 25% | 1014.3 hPa | 0 mm | - | 0 W/m² | - |
| 1777344519 | 22.78° C | 24% | 1013.9 hPa | 0 mm | - | 0 W/m² | - |
| 1777343914 | 23.33° C | 23% | 1013.8 hPa | 0 mm | - | 0 W/m² | - |
| 1777343611 | 23.33° C | 23% | 1013.7 hPa | 0 mm | - | 0 W/m² | - |
| 1777343308 | 23.33° C | 23% | 1013.8 hPa | 0 mm | - | 0 W/m² | - |
| 1777342703 | 23.89° C | 22% | 1013.6 hPa | 0 mm | - | 1 W/m² | - |
| 1777342097 | 23.89° C | 23% | 1013.5 hPa | 0 mm | - | 4 W/m² | - |
| 1777341489 | 24.44° C | 22% | 1013.5 hPa | 0 mm | - | 10 W/m² | - |
| 1777339975 | 25.56° C | 21% | 1013.1 hPa | 0 mm | - | 25 W/m² | - |
| 1777339672 | 25.56° C | 21% | 1012.9 hPa | 0 mm | - | 29 W/m² | - |
| 1777339370 | 26.11° C | 21% | 1013.3 hPa | 0 mm | - | 36 W/m² | - |
| 1777339068 | 26.11° C | 21% | 1013.1 hPa | 0 mm | - | 42 W/m² | - |
| 1777338159 | 26.11° C | 21% | 1013.3 hPa | 0 mm | - | 55 W/m² | - |
| 1777336947 | 26.11° C | 21% | 1013 hPa | 0 mm | - | 87 W/m² | - |
| 1777336646 | 26.67° C | 21% | 1012.9 hPa | 0 mm | - | 95 W/m² | - |
| 1777336344 | 26.67° C | 21% | 1012.9 hPa | 0 mm | - | 112 W/m² | - |
| 1777334223 | 27.22° C | 21% | 1012.9 hPa | 0 mm | - | 231 W/m² | - |
| 1777333620 | 27.22° C | 21% | 1013 hPa | 0 mm | - | 261 W/m² | - |
| 1777311515 | 23.33° C | 27% | 1016.7 hPa | 0 mm | - | 689 W/m² | - |
| 1777311213 | 22.78° C | 26% | 1016.7 hPa | 0 mm | - | 679 W/m² | - |
| 1777310910 | 23.33° C | 26% | 1016.9 hPa | 0 mm | - | 670 W/m² | - |
| 1777310305 | 22.78° C | 26% | 1016.9 hPa | 0 mm | - | 649 W/m² | - |
* Rain latest hour (hover to see other rain measurements)
** Current wind speed in m/s (hover to see current wind gust speed)